Time;durP1;ratioP1;P1;durP2;ratioP2;P2;SDS_P1;SDS_P2;PMS_P1;PMS_P2;Temp;Humidity;BMP_temperature;BMP_pressure;BME280_temperature;BME280_humidity;BME280_pressure;Samples;Min_cycle;Max_cycle;Signal;HPM_P1;HPM_P2
2021/12/24 00:01:59;;;;;;;;;32.00;30.50;;;;;10.07;76.38;100414.72;5058609;28;45324;-75
2021/12/24 00:04:25;;;;;;;;;35.25;33.00;;;;;9.92;76.19;100386.59;5058437;28;45398;-75
2021/12/24 00:06:52;;;;;;;;;34.75;31.25;;;;;9.94;76.30;100390.97;5058634;28;45591;-75
2021/12/24 00:09:22;;;;;;;;;28.25;28.25;;;;;10.12;76.44;100420.88;5057990;28;45400;-74
2021/12/24 00:11:54;;;;;;;;;41.00;35.00;;;;;10.12;76.98;100436.66;5058232;28;45254;-75
2021/12/24 00:14:20;;;;;;;;;31.00;30.75;;;;;10.13;76.87;100438.41;5058197;28;45319;-75
2021/12/24 00:16:51;;;;;;;;;34.50;33.50;;;;;10.01;76.78;100407.66;5058655;28;45424;-75
2021/12/24 00:19:37;;;;;;;;;36.00;32.50;;;;;10.07;76.38;100415.59;5057815;28;47310;-75
2021/12/24 00:35:34;;;;;;;;;36.75;30.25;;;;;10.16;77.50;100404.22;5058008;28;45244;-75
2021/12/24 00:38:08;;;;;;;;;32.25;30.75;;;;;10.22;76.60;100409.53;5058100;28;45230;-75
2021/12/24 00:40:41;;;;;;;;;35.25;32.25;;;;;10.16;77.41;100401.59;5058037;28;46525;-75
2021/12/24 00:43:06;;;;;;;;;30.50;26.75;;;;;10.22;77.43;100410.41;5057758;28;45350;-75
2021/12/24 00:45:36;;;;;;;;;37.25;32.75;;;;;10.22;76.98;100397.25;5039874;28;45348;-74
2021/12/24 00:48:03;;;;;;;;;35.00;34.25;;;;;10.22;77.34;100389.34;5057779;28;45270;-74
2021/12/24 00:50:34;;;;;;;;;32.00;30.50;;;;;10.11;77.46;100356.81;5057388;28;46567;-75
2021/12/24 00:55:01;;;;;;;;;33.00;30.25;;;;;10.07;77.66;100355.06;5057600;28;45215;-75
2021/12/24 00:55:48;;;;;;;;;31.25;29.50;;;;;10.20;77.36;100377.91;5057395;28;45456;-75
2021/12/24 00:58:13;;;;;;;;;29.50;29.50;;;;;10.14;77.42;100358.59;5057914;28;45338;-75
2021/12/24 01:00:39;;;;;;;;;32.75;27.50;;;;;10.20;76.74;100362.13;5057450;28;45703;-74
2021/12/24 01:03:08;;;;;;;;;35.50;29.50;;;;;10.23;76.47;100361.28;5057560;28;45370;-75
2021/12/24 01:05:35;;;;;;;;;33.00;31.25;;;;;10.21;77.44;100358.59;5057595;28;45501;-75
2021/12/24 01:08:00;;;;;;;;;31.25;30.25;;;;;10.19;76.93;100341.06;5057451;28;45399;-74
2021/12/24 01:10:32;;;;;;;;;35.00;30.50;;;;;10.18;76.48;100331.41;5057480;28;45434;-74
2021/12/24 01:12:59;;;;;;;;;35.00;30.50;;;;;10.06;76.33;100315.59;5057670;28;45196;-75
2021/12/24 01:15:25;;;;;;;;;33.25;33.00;;;;;10.04;76.54;100317.31;5057253;28;45301;-75
2021/12/24 01:18:00;;;;;;;;;43.50;35.75;;;;;10.11;76.66;100327.00;5057676;28;45265;-75
2021/12/24 01:20:43;;;;;;;;;38.50;35.75;;;;;9.98;76.90;100313.81;5057170;28;45479;-75
2021/12/24 01:25:40;;;;;;;;;39.25;34.50;;;;;10.01;76.92;100326.09;5057160;28;45378;-74
2021/12/24 01:44:38;;;;;;;;;40.00;35.25;;;;;9.62;77.36;100282.13;5014770;28;45372;-75
2021/12/24 01:47:06;;;;;;;;;32.75;29.75;;;;;9.93;77.08;100330.44;5014643;28;45242;-75
2021/12/24 01:49:32;;;;;;;;;40.50;36.75;;;;;9.94;77.45;100340.97;5014887;28;45432;-75
2021/12/24 01:51:58;;;;;;;;;35.50;31.75;;;;;9.95;77.56;100348.00;5014251;28;46602;-75
2021/12/24 01:54:26;;;;;;;;;37.50;35.50;;;;;9.97;76.82;100340.13;5014599;28;45456;-76
2021/12/24 01:56:51;;;;;;;;;35.75;30.50;;;;;9.90;76.47;100326.06;5014827;28;45210;-75
2021/12/24 01:59:17;;;;;;;;;38.00;31.00;;;;;9.92;76.00;100336.59;5014578;28;45524;-75
2021/12/24 02:01:43;;;;;;;;;37.75;31.50;;;;;9.99;77.21;100333.13;5014509;28;45704;-75
2021/12/24 02:04:11;;;;;;;;;34.75;30.75;;;;;9.94;77.52;100338.34;5017875;28;45325;-75
2021/12/24 02:06:38;;;;;;;;;42.25;30.00;;;;;9.80;76.95;100305.88;5018301;28;45429;-75
2021/12/24 02:09:04;;;;;;;;;33.00;28.50;;;;;9.94;77.14;100334.84;5018062;28;45422;-75
2021/12/24 02:11:37;;;;;;;;;36.25;31.25;;;;;9.75;77.07;100306.69;5018028;28;46357;-75
2021/12/24 02:14:05;;;;;;;;;28.25;28.25;;;;;9.81;77.47;100317.25;5018148;28;45463;-75
2021/12/24 02:30:05;;;;;;;;;26.50;26.50;;;;;9.76;76.66;100293.56;5060188;28;45395;-75
2021/12/24 02:32:32;;;;;;;;;31.00;27.75;;;;;9.75;77.80;100296.19;5059491;28;46823;-75
2021/12/24 02:34:57;;;;;;;;;32.25;31.75;;;;;9.71;77.74;100296.19;5041558;28;45286;-75
2021/12/24 02:37:22;;;;;;;;;29.75;29.50;;;;;9.82;77.57;100309.38;5059715;28;45808;-75
2021/12/24 02:39:48;;;;;;;;;27.00;26.25;;;;;9.86;77.65;100316.38;5059930;28;45439;-75
2021/12/24 02:42:17;;;;;;;;;36.00;35.00;;;;;9.76;77.93;100296.19;5059418;28;45488;-75
2021/12/24 02:44:45;;;;;;;;;36.25;32.00;;;;;9.73;77.90;100288.28;5059482;28;45393;-75
2021/12/24 02:55:06;;;;;;;;;28.00;24.50;;;;;9.76;77.07;100283.03;5059408;28;45438;-75
2021/12/24 02:57:34;;;;;;;;;38.75;36.25;;;;;9.83;77.35;100276.03;5059632;28;45305;-75
2021/12/24 03:00:02;;;;;;;;;30.50;30.50;;;;;9.81;77.94;100281.31;5059845;28;45244;-75
2021/12/24 03:02:30;;;;;;;;;34.25;32.00;;;;;9.86;77.49;100283.94;5059363;28;46656;-75
2021/12/24 03:04:56;;;;;;;;;34.75;34.75;;;;;9.90;77.84;100305.03;5059249;28;45322;-75
2021/12/24 03:07:22;;;;;;;;;35.50;31.50;;;;;9.85;77.36;100292.72;5059118;28;45246;-76
2021/12/24 03:09:47;;;;;;;;;35.75;32.75;;;;;9.87;77.38;100296.25;5059631;28;45142;-75
2021/12/24 03:12:13;;;;;;;;;30.00;29.00;;;;;9.79;77.79;100287.44;5059203;28;45436;-75
2021/12/24 03:14:39;;;;;;;;;39.00;33.25;;;;;9.86;77.48;100297.97;5059339;28;45408;-75
2021/12/24 03:17:09;;;;;;;;;33.75;32.50;;;;;9.81;77.36;100280.44;5059468;28;45247;-76
2021/12/24 03:19:35;;;;;;;;;34.00;29.25;;;;;9.81;77.89;100278.69;5059389;28;45482;-74
2021/12/24 03:22:13;;;;;;;;;31.75;25.25;;;;;9.87;77.81;100291.00;5058842;28;46367;-75
2021/12/24 03:24:39;;;;;;;;;33.25;29.00;;;;;9.83;77.54;100284.81;5058983;28;45224;-75
2021/12/24 03:27:07;;;;;;;;;32.75;31.25;;;;;9.85;78.06;100288.31;5059197;28;45257;-74
2021/12/24 03:29:33;;;;;;;;;33.50;32.00;;;;;9.80;77.96;100274.28;5059217;28;45338;-75
2021/12/24 03:31:58;;;;;;;;;35.50;33.50;;;;;9.81;77.43;100277.81;5058594;28;46665;-75
2021/12/24 03:34:24;;;;;;;;;42.00;36.00;;;;;9.74;77.33;100270.75;5058737;28;45415;-75
2021/12/24 03:36:50;;;;;;;;;36.00;30.50;;;;;9.83;77.36;100274.28;5058727;28;45287;-75
2021/12/24 03:39:17;;;;;;;;;33.75;32.00;;;;;9.75;77.60;100257.59;5059397;28;45193;-75
2021/12/24 03:41:44;;;;;;;;;34.00;29.50;;;;;9.64;77.98;100240.91;5058661;28;46168;-76
2021/12/24 03:44:12;;;;;;;;;30.25;24.25;;;;;9.82;77.68;100271.66;5058752;28;45212;-75
2021/12/24 03:49:45;;;;;;;;;41.00;36.00;;;;;9.77;77.08;100249.72;5058908;28;45302;-75
2021/12/24 03:54:56;;;;;;;;;39.50;33.25;;;;;9.79;77.96;100261.16;5058267;28;45519;-75
2021/12/24 03:57:42;;;;;;;;;31.50;30.75;;;;;9.80;78.09;100266.41;5058653;28;45365;-75
2021/12/24 04:00:14;;;;;;;;;37.75;33.00;;;;;9.79;78.00;100258.50;5058197;28;45639;-75
2021/12/24 04:02:40;;;;;;;;;43.75;36.75;;;;;9.76;78.00;100250.59;5058368;28;45504;-75
2021/12/24 04:05:06;;;;;;;;;25.00;24.75;;;;;9.76;78.03;100240.06;5040530;28;45327;-75
2021/12/24 04:07:32;;;;;;;;;40.00;34.25;;;;;9.77;77.92;100247.09;5058442;28;45292;-75
2021/12/24 04:12:26;;;;;;;;;33.25;31.00;;;;;9.74;77.61;100232.19;5058395;28;45480;-75
2021/12/24 04:14:53;;;;;;;;;37.25;30.50;;;;;9.69;78.21;100211.16;5057811;28;45413;-75
2021/12/24 04:17:19;;;;;;;;;30.25;28.50;;;;;9.79;77.79;100226.94;5058422;28;45311;-75
2021/12/24 04:25:13;;;;;;;;;27.00;25.25;;;;;9.73;77.90;100204.13;5057710;28;45247;-75
2021/12/24 04:27:39;;;;;;;;;37.25;30.25;;;;;9.77;77.69;100212.88;5057999;28;45231;-75
2021/12/24 04:30:13;;;;;;;;;27.75;27.75;;;;;9.75;78.43;100209.38;5058109;28;45535;-74
2021/12/24 04:51:48;;;;;;;;;36.75;33.00;;;;;9.69;79.16;100176.06;4996627;28;45548;-75
2021/12/24 05:05:00;;;;;;;;;31.50;29.75;;;;;9.74;79.12;100174.31;4995701;28;46260;-75
2021/12/24 05:09:54;;;;;;;;;38.25;33.50;;;;;9.87;79.34;100191.91;4995450;28;45428;-75
2021/12/24 05:12:20;;;;;;;;;35.00;32.00;;;;;9.80;78.98;100179.59;4995601;28;45320;-75
2021/12/24 05:14:45;;;;;;;;;33.75;25.75;;;;;9.75;78.88;100170.81;5019033;28;46539;-76
2021/12/24 05:22:30;;;;;;;;;26.50;26.00;;;;;9.82;79.28;100176.97;5057597;28;45224;-76
2021/12/24 05:24:57;;;;;;;;;33.00;29.25;;;;;9.88;79.36;100176.97;5038931;28;47296;-76
2021/12/24 05:27:23;;;;;;;;;25.75;24.50;;;;;9.92;79.18;100182.22;5057290;28;45466;-76
2021/12/24 05:29:48;;;;;;;;;34.50;29.50;;;;;9.85;78.78;100172.56;5057370;28;45283;-76
2021/12/24 05:32:14;;;;;;;;;33.25;30.75;;;;;9.83;78.94;100171.69;5057199;28;45307;-75
2021/12/24 05:34:39;;;;;;;;;26.75;26.25;;;;;9.87;79.24;100176.09;5056989;28;46475;-75
2021/12/24 05:37:04;;;;;;;;;40.25;33.50;;;;;9.86;78.88;100173.44;5057513;28;45395;-75
2021/12/24 05:39:30;;;;;;;;;32.50;29.00;;;;;9.84;79.21;100173.44;5060934;28;45286;-75
2021/12/24 05:41:55;;;;;;;;;32.25;28.25;;;;;9.58;79.17;100125.19;5060863;28;45314;-76
2021/12/24 05:44:21;;;;;;;;;31.25;29.75;;;;;9.92;79.22;100176.97;5060531;28;46117;-75
2021/12/24 05:46:47;;;;;;;;;31.25;27.25;;;;;9.91;79.29;100167.31;5059862;28;45223;-74
2021/12/24 05:49:13;;;;;;;;;35.00;30.75;;;;;9.90;79.78;100169.97;5060164;28;45239;-75
2021/12/24 05:51:39;;;;;;;;;29.00;27.00;;;;;9.79;79.84;100153.28;5060156;28;45282;-76
2021/12/24 05:54:05;;;;;;;;;28.75;28.75;;;;;9.81;80.84;100170.81;5059773;28;45953;-76
2021/12/24 05:56:30;;;;;;;;;36.75;33.75;;;;;9.77;80.39;100166.44;5059267;28;45329;-76
2021/12/24 05:58:56;;;;;;;;;18.50;16.50;;;;;9.78;80.87;100170.84;5059642;28;45279;-76
2021/12/24 06:01:23;;;;;;;;;26.25;26.00;;;;;9.76;80.43;100176.94;5059504;28;45128;-77
2021/12/24 06:03:48;;;;;;;;;34.75;29.00;;;;;9.79;81.47;100193.63;5059265;28;45489;-76
2021/12/24 06:06:14;;;;;;;;;32.00;28.50;;;;;9.75;81.38;100189.22;5059254;28;45409;-76
2021/12/24 06:08:39;;;;;;;;;39.00;32.00;;;;;9.68;80.99;100179.59;5059474;28;45402;-77
2021/12/24 06:11:05;;;;;;;;;33.50;29.75;;;;;9.72;81.42;100183.97;5059345;28;45397;-77
2021/12/24 06:13:31;;;;;;;;;24.00;23.25;;;;;9.51;80.95;100148.00;5059149;28;47535;-76
2021/12/24 06:15:56;;;;;;;;;38.25;27.50;;;;;9.81;81.07;100201.50;5059175;28;45504;-76
2021/12/24 06:18:27;;;;;;;;;29.25;26.00;;;;;9.62;81.72;100180.44;5059225;28;45199;-75
2021/12/24 06:20:56;;;;;;;;;30.50;27.50;;;;;9.75;81.58;100201.50;5059261;28;45306;-76
2021/12/24 06:23:24;;;;;;;;;30.00;29.00;;;;;9.71;81.79;100190.97;5059099;28;46126;-76
2021/12/24 06:25:53;;;;;;;;;28.00;27.00;;;;;9.75;82.19;100191.84;5040749;28;45427;-75
2021/12/24 06:28:19;;;;;;;;;29.00;28.00;;;;;9.71;82.71;100192.72;5059173;28;45396;-76
2021/12/24 06:30:45;;;;;;;;;33.50;28.50;;;;;9.65;83.17;100180.44;5058833;28;45605;-75
2021/12/24 06:33:10;;;;;;;;;34.25;27.25;;;;;9.72;82.86;100194.47;5058505;28;45486;-75
2021/12/24 06:35:37;;;;;;;;;35.25;31.50;;;;;9.72;83.34;100183.97;5058667;28;45420;-75
2021/12/24 06:38:03;;;;;;;;;34.75;31.00;;;;;9.62;83.02;100163.78;5059029;28;45236;-75
2021/12/24 06:40:29;;;;;;;;;31.75;29.00;;;;;9.67;83.93;100170.78;5058791;28;45553;-76
2021/12/24 06:42:55;;;;;;;;;39.00;29.00;;;;;9.69;83.77;100170.81;5058616;28;45777;-76
2021/12/24 06:45:24;;;;;;;;;29.50;26.00;;;;;9.59;84.11;100163.78;5058268;28;45231;-77
2021/12/24 06:47:51;;;;;;;;;30.60;25.80;;;;;9.56;83.84;100154.13;5018256;28;1152064;-75
2021/12/24 06:50:17;;;;;;;;;33.75;24.75;;;;;9.67;84.43;100167.28;5060013;28;45242;-76
2021/12/24 06:52:42;;;;;;;;;31.00;29.50;;;;;9.64;84.65;100170.78;5059402;28;45971;-76
2021/12/24 06:55:10;;;;;;;;;31.50;25.75;;;;;9.69;84.27;100165.56;5059610;28;45469;-77
2021/12/24 06:57:36;;;;;;;;;26.25;26.25;;;;;9.68;84.50;100169.94;5059605;28;45317;-76
2021/12/24 07:00:03;;;;;;;;;27.25;25.00;;;;;9.65;84.73;100167.28;5059859;28;45445;-76
2021/12/24 07:02:29;;;;;;;;;28.00;25.50;;;;;9.56;84.38;100147.97;5059285;28;46469;-75
2021/12/24 07:04:54;;;;;;;;;28.25;25.75;;;;;9.70;84.78;100169.94;5059677;28;45260;-76
2021/12/24 07:07:19;;;;;;;;;33.25;27.75;;;;;9.49;85.09;100135.69;5059488;28;45327;-77
2021/12/24 07:09:45;;;;;;;;;28.75;25.00;;;;;9.65;84.51;100167.28;5059406;28;45405;-76
2021/12/24 07:12:13;;;;;;;;;30.25;29.25;;;;;9.51;84.99;100140.09;5059165;28;45407;-77
2021/12/24 07:14:40;;;;;;;;;32.25;27.75;;;;;9.66;85.30;100163.78;5059321;28;45357;-76
2021/12/24 07:17:06;;;;;;;;;26.25;24.75;;;;;9.66;85.56;100152.38;5059168;28;45231;-76
2021/12/24 07:19:32;;;;;;;;;23.50;22.00;;;;;9.69;85.11;100158.53;5059322;28;45530;-76
2021/12/24 07:21:57;;;;;;;;;27.75;24.25;;;;;9.54;85.00;100129.56;5059192;28;46322;-76
2021/12/24 07:24:22;;;;;;;;;27.25;24.50;;;;;9.70;85.32;100156.78;5060998;28;45271;-75
2021/12/24 07:26:48;;;;;;;;;27.00;24.75;;;;;9.66;85.67;100155.88;5061242;28;45326;-75
2021/12/24 07:29:13;;;;;;;;;24.75;22.25;;;;;9.70;85.60;100167.31;5061090;28;45267;-76
2021/12/24 07:31:39;;;;;;;;;34.00;27.50;;;;;9.69;85.77;100161.16;5060916;28;45726;-76
2021/12/24 07:34:04;;;;;;;;;24.00;22.25;;;;;9.69;85.21;100163.81;5061928;28;45424;-76
2021/12/24 07:36:30;;;;;;;;;25.75;25.00;;;;;9.55;85.46;100135.72;5059956;28;45362;-75
2021/12/24 07:38:55;;;;;;;;;26.25;21.25;;;;;9.68;85.57;100151.53;5058774;28;45338;-79
2021/12/24 07:41:21;;;;;;;;;25.25;25.00;;;;;9.44;85.97;100112.03;5058871;28;46600;-76
2021/12/24 07:43:46;;;;;;;;;25.75;25.00;;;;;9.57;85.93;100140.09;5058604;28;45377;-76
2021/12/24 07:46:12;;;;;;;;;21.25;21.25;;;;;9.55;85.89;100133.97;5058675;28;45599;-76
2021/12/24 07:48:45;;;;;;;;;24.75;23.75;;;;;9.60;85.98;100141.88;5058811;28;45216;-75
2021/12/24 07:54:00;;;;;;;;;20.75;20.75;;;;;9.65;86.73;100162.03;5058399;28;45367;-74
2021/12/24 07:56:26;;;;;;;;;21.00;18.50;;;;;9.62;86.75;100153.25;5040545;28;45273;-77
2021/12/24 07:58:51;;;;;;;;;19.75;19.75;;;;;9.62;86.72;100146.25;5059027;28;45200;-76
2021/12/24 08:01:18;;;;;;;;;21.00;19.25;;;;;9.50;86.33;100125.19;5057388;28;46646;-75
2021/12/24 08:03:43;;;;;;;;;21.75;17.75;;;;;9.70;86.51;100165.56;5058425;28;45405;-76
2021/12/24 08:06:09;;;;;;;;;20.25;18.00;;;;;9.56;86.42;100132.22;5058644;28;45266;-76
2021/12/24 08:08:34;;;;;;;;;19.75;16.00;;;;;9.57;86.06;100126.94;5040098;28;45322;-77
2021/12/24 08:10:59;;;;;;;;;18.75;15.50;;;;;9.73;86.61;100148.91;5058394;28;46406;-76
2021/12/24 08:13:25;;;;;;;;;24.50;20.50;;;;;9.71;86.60;100143.63;5058262;28;45341;-76
2021/12/24 08:15:53;;;;;;;;;19.00;19.00;;;;;9.70;86.75;100149.78;5058287;28;45391;-76
2021/12/24 08:18:19;;;;;;;;;19.75;18.25;;;;;9.61;86.32;100122.59;5058554;28;45429;-76
2021/12/24 08:20:44;;;;;;;;;14.00;14.00;;;;;9.62;86.87;100129.59;5057971;28;46298;-77
2021/12/24 08:23:10;;;;;;;;;21.50;17.50;;;;;9.67;86.22;100138.34;5039987;28;45280;-76
2021/12/24 08:25:35;;;;;;;;;17.50;17.50;;;;;9.59;86.54;100117.31;5057962;28;45241;-77
2021/12/24 08:28:01;;;;;;;;;16.25;15.50;;;;;9.40;86.89;100089.25;5058421;28;45230;-77
2021/12/24 08:30:26;;;;;;;;;16.00;15.50;;;;;9.70;86.59;100128.72;5057965;28;47244;-76
2021/12/24 08:32:52;;;;;;;;;18.75;17.50;;;;;9.68;86.99;100116.47;5057763;28;45531;-77
2021/12/24 08:35:21;;;;;;;;;15.50;15.50;;;;;9.74;86.79;100129.59;5058286;28;45432;-76
2021/12/24 08:37:46;;;;;;;;;13.75;13.00;;;;;9.66;86.74;100123.44;5058259;28;45369;-76
2021/12/24 08:40:12;;;;;;;;;14.50;13.50;;;;;9.80;86.61;100150.66;5057532;28;46980;-75
2021/12/24 08:42:38;;;;;;;;;13.50;13.25;;;;;9.78;86.62;100126.13;5057684;28;45276;-74
2021/12/24 08:45:05;;;;;;;;;12.25;12.00;;;;;9.82;86.86;100127.84;5057548;28;45224;-74
2021/12/24 08:47:30;;;;;;;;;15.75;15.50;;;;;9.82;86.66;100117.34;5057356;28;45188;-74
2021/12/24 08:49:55;;;;;;;;;15.50;9.50;;;;;9.85;86.08;100108.56;5039350;28;48424;-74
2021/12/24 08:52:21;;;;;;;;;14.75;13.50;;;;;9.91;86.07;100109.44;5057884;28;45260;-74
2021/12/24 08:54:47;;;;;;;;;15.00;14.25;;;;;9.97;85.74;100095.44;5057522;28;45354;-74
2021/12/24 08:57:12;;;;;;;;;8.50;8.50;;;;;10.15;85.83;100116.47;5057486;28;45407;-74
2021/12/24 08:59:37;;;;;;;;;15.25;14.00;;;;;10.19;86.09;100112.06;5057308;28;45314;-75
2021/12/24 09:02:03;;;;;;;;;20.25;18.25;;;;;10.25;84.68;100126.13;5039146;28;45390;-73
2021/12/24 09:04:29;;;;;;;;;13.25;13.00;;;;;10.24;85.08;100115.63;5057323;28;45349;-74
2021/12/24 09:06:54;;;;;;;;;15.50;15.00;;;;;10.26;84.50;100121.75;5057671;28;45318;-75
2021/12/24 09:09:20;;;;;;;;;16.25;14.00;;;;;10.28;84.53;100125.25;5056955;28;46472;-75
2021/12/24 09:11:47;;;;;;;;;14.50;14.50;;;;;10.38;84.52;100134.88;5038992;28;45458;-75
2021/12/24 09:14:18;;;;;;;;;15.00;15.00;;;;;10.37;84.81;100127.00;5057587;28;45378;-73
2021/12/24 09:16:47;;;;;;;;;13.25;13.25;;;;;10.45;84.72;100134.00;5057509;28;45352;-75
2021/12/24 09:19:16;;;;;;;;;16.00;16.00;;;;;10.44;84.57;100136.66;5057583;28;45568;-74
2021/12/24 09:21:42;;;;;;;;;13.00;12.50;;;;;10.34;84.54;100120.00;5057080;28;45369;-75
2021/12/24 09:24:08;;;;;;;;;17.25;14.25;;;;;10.44;84.73;100134.00;5057059;28;45345;-74
2021/12/24 09:26:38;;;;;;;;;14.75;13.50;;;;;10.45;84.00;100130.50;5057370;28;45484;-75
2021/12/24 09:29:07;;;;;;;;;19.50;15.00;;;;;10.55;83.97;100134.84;5057178;28;45323;-73
2021/12/24 09:31:32;;;;;;;;;15.25;13.25;;;;;10.56;84.41;100119.03;5056756;28;45434;-73
2021/12/24 09:33:58;;;;;;;;;9.25;7.00;;;;;10.66;84.45;100133.06;5038985;28;45388;-75
2021/12/24 09:36:26;;;;;;;;;15.50;14.00;;;;;10.68;83.83;100130.44;5056889;28;45402;-75
2021/12/24 09:38:54;;;;;;;;;18.25;18.25;;;;;10.69;84.36;100133.03;5056985;28;45537;-75
2021/12/24 09:41:20;;;;;;;;;12.50;12.50;;;;;10.56;83.70;100100.63;5057053;28;45290;-76
2021/12/24 09:43:46;;;;;;;;;14.75;14.75;;;;;10.75;84.25;100135.69;5057087;28;45239;-75
2021/12/24 09:46:12;;;;;;;;;15.75;11.75;;;;;10.61;84.15;100100.63;5038878;28;45265;-74
2021/12/24 09:48:38;;;;;;;;;17.00;14.75;;;;;10.76;83.23;100128.66;5056649;28;46036;-75
2021/12/24 09:51:04;;;;;;;;;16.75;15.75;;;;;10.69;83.23;100100.56;5056747;28;45440;-75
2021/12/24 09:53:30;;;;;;;;;23.00;16.75;;;;;10.80;83.26;100107.56;5057035;28;45244;-75
2021/12/24 09:55:55;;;;;;;;;20.00;15.75;;;;;10.78;82.90;100068.91;5038585;28;45529;-75
2021/12/24 09:58:21;;;;;;;;;22.50;20.50;;;;;11.08;83.12;100110.97;5056890;28;46477;-76
2021/12/24 10:00:46;;;;;;;;;14.75;14.25;;;;;10.84;81.83;100061.88;5056741;28;45361;-76
2021/12/24 10:03:28;;;;;;;;;18.75;18.75;;;;;11.03;82.65;100102.19;5056757;28;45406;-75
2021/12/24 10:05:54;;;;;;;;;19.00;19.00;;;;;11.12;82.06;100119.72;5056920;28;45414;-75
2021/12/24 10:08:22;;;;;;;;;21.50;16.25;;;;;10.86;82.42;100088.22;5056643;28;46981;-75
2021/12/24 10:10:51;;;;;;;;;26.50;18.25;;;;;10.91;82.67;100096.13;5056721;28;45307;-75
2021/12/24 10:13:36;;;;;;;;;18.75;18.75;;;;;11.11;82.35;100108.31;5056370;28;45264;-75
2021/12/24 10:16:04;;;;;;;;;14.75;14.75;;;;;11.17;83.13;100102.16;5056703;28;45279;-74
2021/12/24 10:18:37;;;;;;;;;21.25;18.00;;;;;11.23;82.53;100094.19;5056481;28;46380;-75
2021/12/24 10:21:05;;;;;;;;;22.75;18.50;;;;;11.25;81.41;100097.69;5056268;28;45325;-76
2021/12/24 10:23:54;;;;;;;;;22.50;18.00;;;;;11.26;81.63;100101.19;5057162;28;45353;-76
2021/12/24 10:26:34;;;;;;;;;22.75;21.00;;;;;11.22;82.48;100097.69;5059877;28;45153;-75
2021/12/24 10:29:20;;;;;;;;;17.75;17.75;;;;;11.11;82.75;100087.22;5059478;28;46601;-75
2021/12/24 10:31:48;;;;;;;;;20.75;18.00;;;;;11.17;82.43;100096.88;5059787;28;45332;-75
2021/12/24 10:34:18;;;;;;;;;15.00;13.00;;;;;11.16;82.49;100086.31;5041560;28;45322;-75
2021/12/24 10:36:58;;;;;;;;;21.00;19.50;;;;;11.06;82.35;100073.16;5059604;28;45350;-75
2021/12/24 10:39:36;;;;;;;;;17.00;17.00;;;;;11.08;82.43;100073.19;5059831;28;45390;-75
2021/12/24 10:42:07;;;;;;;;;18.00;18.00;;;;;11.11;83.12;100065.25;5059736;28;45240;-75
2021/12/24 10:44:37;;;;;;;;;20.50;18.00;;;;;11.19;82.57;100071.38;5059708;28;45187;-75
2021/12/24 10:47:06;;;;;;;;;25.00;20.50;;;;;11.24;82.61;100073.97;5059550;28;45431;-75
2021/12/24 10:49:52;;;;;;;;;18.25;17.00;;;;;11.16;82.23;100045.00;5059485;28;45477;-76
2021/12/24 10:55:10;;;;;;;;;25.00;23.25;;;;;11.23;82.27;100057.28;5059190;28;45341;-75
2021/12/24 10:57:38;;;;;;;;;25.25;22.25;;;;;11.33;81.80;100063.34;5059478;28;45360;-74
2021/12/24 11:00:33;;;;;;;;;21.50;20.00;;;;;11.36;82.39;100074.78;5059422;28;47038;-75
2021/12/24 11:03:03;;;;;;;;;21.25;15.50;;;;;11.32;82.81;100054.56;4941712;28;45454;-75
2021/12/24 11:05:31;;;;;;;;;21.25;19.75;;;;;11.43;82.57;100060.63;4958143;28;45301;-75
2021/12/24 11:08:02;;;;;;;;;20.50;18.25;;;;;11.37;82.12;100038.72;4958049;28;45577;-75
2021/12/24 11:10:33;;;;;;;;;25.25;22.75;;;;;11.56;81.46;100053.53;4957360;28;46176;-75
2021/12/24 11:13:08;;;;;;;;;20.00;18.25;;;;;11.62;81.41;100031.50;4957514;28;45439;-75
2021/12/24 11:15:33;;;;;;;;;20.75;18.50;;;;;11.70;81.03;100034.94;4941350;28;45322;-75
2021/12/24 11:18:14;;;;;;;;;17.50;17.50;;;;;11.77;80.10;100026.09;4957958;28;45283;-75
2021/12/24 11:20:40;;;;;;;;;20.00;15.75;;;;;11.69;80.01;100002.41;4957593;28;47481;-75
2021/12/24 11:23:10;;;;;;;;;23.25;23.25;;;;;11.90;80.26;100017.19;4941286;28;45444;-74
2021/12/24 11:25:42;;;;;;;;;18.00;18.00;;;;;11.96;80.18;100011.88;4957642;28;45283;-75
2021/12/24 11:28:09;;;;;;;;;17.50;16.00;;;;;12.05;79.79;100004.75;4957750;28;45403;-75
2021/12/24 11:30:38;;;;;;;;;19.25;17.75;;;;;12.09;78.99;99998.53;4957627;28;47572;-75
2021/12/24 11:33:03;;;;;;;;;19.00;17.25;;;;;12.06;79.05;99988.00;4957086;28;45383;-75
2021/12/24 11:35:30;;;;;;;;;20.00;20.00;;;;;12.03;78.68;99996.84;4956155;28;45333;-75
2021/12/24 11:37:59;;;;;;;;;21.75;17.25;;;;;11.83;79.66;99969.78;4957948;28;45349;-75
2021/12/24 11:40:26;;;;;;;;;20.50;19.00;;;;;11.92;80.15;99996.97;5012525;28;47810;-75
2021/12/24 11:42:59;;;;;;;;;19.25;17.00;;;;;11.82;79.66;99989.13;5058784;28;45460;-78
2021/12/24 11:45:27;;;;;;;;;18.25;18.00;;;;;11.79;79.73;99995.28;5058536;28;45251;-77
2021/12/24 11:47:52;;;;;;;;;18.00;18.00;;;;;11.71;80.14;99995.34;5058326;28;45470;-75
2021/12/24 11:50:19;;;;;;;;;21.00;21.00;;;;;11.77;80.16;99998.84;5058181;28;45272;-75
2021/12/24 11:52:47;;;;;;;;;18.00;15.50;;;;;11.58;80.29;99983.16;5058168;28;45340;-74
2021/12/24 11:55:13;;;;;;;;;17.50;17.25;;;;;11.68;80.70;100005.94;5040224;28;45449;-75
2021/12/24 11:57:55;;;;;;;;;17.75;16.50;;;;;11.74;80.56;100005.03;5058422;28;45239;-75
2021/12/24 12:00:24;;;;;;;;;23.00;20.75;;;;;11.73;79.76;100003.28;5058481;28;46225;-75
2021/12/24 12:02:50;;;;;;;;;17.50;15.75;;;;;11.75;79.95;99995.34;5057739;28;45338;-75
2021/12/24 12:05:18;;;;;;;;;18.25;17.25;;;;;11.86;79.54;100007.56;5057870;28;45349;-75
2021/12/24 12:07:44;;;;;;;;;19.50;17.75;;;;;11.88;79.97;100005.78;5058452;28;45362;-75
2021/12/24 12:10:11;;;;;;;;;14.00;13.50;;;;;11.94;79.78;99997.81;5057942;28;47541;-75
2021/12/24 12:12:39;;;;;;;;;19.00;16.50;;;;;11.94;79.17;99984.63;5058179;28;45373;-75
2021/12/24 12:15:28;;;;;;;;;15.00;15.00;;;;;12.02;78.77;99987.19;5057428;28;45263;-75
2021/12/24 12:17:58;;;;;;;;;18.00;15.50;;;;;12.04;79.26;99988.03;5058495;28;45368;-75
2021/12/24 12:20:47;;;;;;;;;17.25;14.50;;;;;11.94;78.93;99984.63;5057446;28;45714;-74
2021/12/24 12:24:56;;;;;;;;;16.25;14.75;;;;;11.98;79.66;99985.44;5057835;28;45257;-73
2021/12/24 12:26:42;;;;;;;;;20.75;17.00;;;;;11.89;78.92;99990.81;5057558;28;45235;-75
2021/12/24 12:29:26;;;;;;;;;21.75;16.50;;;;;11.91;79.24;100004.88;5058023;28;45220;-76
2021/12/24 12:32:24;;;;;;;;;25.00;24.75;;;;;11.83;79.06;100002.34;5057688;28;45713;-75
2021/12/24 12:34:56;;;;;;;;;20.25;20.25;;;;;11.78;79.22;99997.94;5057655;28;45228;-75
2021/12/24 12:37:47;;;;;;;;;18.75;18.50;;;;;11.81;79.73;99990.00;5057676;28;45329;-75
2021/12/24 12:40:12;;;;;;;;;23.00;15.75;;;;;11.84;79.15;99995.28;5058012;28;45519;-75
2021/12/24 12:42:51;;;;;;;;;19.50;18.00;;;;;11.78;79.96;99984.75;5057568;28;45456;-75
2021/12/24 12:45:20;;;;;;;;;18.50;17.75;;;;;11.68;80.48;99981.31;5057546;28;45346;-75
2021/12/24 12:47:57;;;;;;;;;16.25;15.00;;;;;11.66;80.60;99991.91;5056844;28;45410;-74
2021/12/24 12:50:24;;;;;;;;;26.25;21.75;;;;;11.59;80.50;99986.69;5057954;28;45225;-75
2021/12/24 12:52:53;;;;;;;;;27.50;23.50;;;;;11.61;80.27;99985.78;5039332;28;46591;-75
2021/12/24 12:55:30;;;;;;;;;22.75;22.75;;;;;11.64;80.61;99984.88;5057327;28;45232;-75
2021/12/24 12:58:19;;;;;;;;;30.25;28.00;;;;;11.60;80.26;99977.88;5057104;28;45373;-75
2021/12/24 13:01:17;;;;;;;;;27.75;22.00;;;;;11.67;79.83;99974.28;5057692;28;45433;-75
2021/12/24 13:03:55;;;;;;;;;23.25;22.75;;;;;11.83;80.24;99953.97;5057097;28;45436;-76
2021/12/24 13:06:24;;;;;;;;;27.00;24.75;;;;;11.81;79.67;99943.38;5057188;28;45367;-75
2021/12/24 13:08:50;;;;;;;;;25.25;24.00;;;;;11.95;79.52;99946.78;5056888;28;45279;-74
2021/12/24 13:11:20;;;;;;;;;22.25;22.25;;;;;11.95;78.89;99946.78;5057456;28;45397;-74
2021/12/24 13:14:00;;;;;;;;;23.00;23.00;;;;;12.01;79.51;99943.22;5057305;28;46214;-74